createdAt,value
2022-12-18T00:01:20.760Z,27.67
2022-12-18T00:03:48.375Z,31.67
2022-12-18T00:06:16.644Z,24.90
2022-12-18T00:08:44.463Z,26.23
2022-12-18T00:11:19.760Z,27.42
2022-12-18T00:13:46.739Z,27.48
2022-12-18T00:16:16.751Z,26.13
2022-12-18T00:18:43.933Z,27.52
2022-12-18T00:21:13.014Z,26.05
2022-12-18T00:23:44.219Z,24.70
2022-12-18T00:26:20.050Z,24.63
2022-12-18T00:28:47.552Z,21.10
2022-12-18T00:31:18.397Z,20.38
2022-12-18T00:33:45.414Z,18.20
2022-12-18T00:36:15.624Z,21.48
2022-12-18T00:38:42.913Z,19.90
2022-12-18T00:41:11.556Z,14.45
2022-12-18T00:43:39.474Z,20.50
2022-12-18T00:46:07.380Z,15.45
2022-12-18T00:48:34.199Z,18.25
2022-12-18T00:51:00.938Z,15.95
2022-12-18T00:53:27.755Z,15.52
2022-12-18T00:55:55.704Z,17.83
2022-12-18T00:58:22.497Z,17.52
2022-12-18T01:00:49.467Z,17.40
2022-12-18T01:03:16.268Z,17.20
2022-12-18T01:05:44.436Z,16.23
2022-12-18T01:08:12.129Z,17.17
2022-12-18T01:10:42.455Z,15.48
2022-12-18T01:13:09.699Z,18.63
2022-12-18T01:15:36.860Z,16.20
2022-12-18T01:18:03.584Z,19.17
2022-12-18T01:20:31.429Z,18.20
2022-12-18T01:22:58.218Z,19.45
2022-12-18T01:25:25.068Z,21.13
2022-12-18T01:27:51.936Z,19.05
2022-12-18T01:30:18.832Z,15.23
2022-12-18T01:32:47.951Z,18.23
2022-12-18T01:35:14.606Z,16.67
2022-12-18T01:37:41.386Z,15.20
2022-12-18T01:40:08.849Z,17.42
2022-12-18T01:42:35.672Z,17.08
2022-12-18T01:45:14.477Z,19.52
2022-12-18T01:47:51.806Z,25.23
2022-12-18T01:50:28.501Z,22.10
2022-12-18T01:53:01.057Z,19.60
2022-12-18T01:55:33.149Z,23.45
2022-12-18T01:58:01.573Z,25.85
2022-12-18T02:00:29.681Z,29.05
2022-12-18T02:02:57.768Z,21.60
2022-12-18T02:06:05.886Z,26.35
2022-12-18T02:08:38.528Z,23.92
2022-12-18T02:11:23.472Z,19.35
2022-12-18T02:14:06.044Z,20.83
2022-12-18T02:16:43.524Z,22.60
2022-12-18T02:19:33.294Z,21.17
2022-12-18T02:22:00.481Z,22.23
2022-12-18T02:25:14.275Z,23.75
2022-12-18T02:27:45.258Z,26.85
2022-12-18T02:30:12.500Z,22.02
2022-12-18T02:32:43.221Z,21.35
2022-12-18T02:35:15.947Z,26.00
2022-12-18T02:37:46.208Z,20.40
2022-12-18T02:40:15.150Z,25.92
2022-12-18T02:42:43.228Z,24.42
2022-12-18T02:45:11.583Z,19.02
2022-12-18T02:47:41.835Z,24.63
2022-12-18T02:50:37.066Z,22.20
2022-12-18T02:53:25.381Z,24.50
2022-12-18T02:56:16.486Z,25.17
2022-12-18T02:58:43.229Z,20.60
2022-12-18T03:01:20.400Z,21.48
2022-12-18T03:04:00.580Z,24.92
2022-12-18T03:06:36.331Z,32.75
2022-12-18T03:09:11.772Z,36.65
2022-12-18T03:12:01.183Z,31.75
2022-12-18T03:14:32.107Z,22.92
2022-12-18T03:17:02.994Z,22.95
2022-12-18T03:19:33.718Z,29.48
2022-12-18T03:22:04.444Z,26.60
2022-12-18T03:24:41.109Z,28.00
2022-12-18T03:27:14.662Z,32.95
2022-12-18T03:29:53.942Z,37.22
2022-12-18T03:32:32.500Z,28.40
2022-12-18T03:35:05.329Z,28.77
2022-12-18T03:37:36.073Z,40.85
2022-12-18T03:40:04.807Z,33.58
2022-12-18T03:42:40.942Z,33.33
2022-12-18T03:45:19.790Z,28.98
2022-12-18T03:48:22.406Z,32.40
2022-12-18T03:51:01.361Z,39.90
2022-12-18T03:54:03.644Z,24.60
2022-12-18T03:56:38.847Z,32.72
2022-12-18T03:59:08.279Z,26.75
2022-12-18T04:01:40.817Z,38.10
2022-12-18T04:04:09.492Z,26.73
2022-12-18T04:06:40.115Z,27.60
2022-12-18T04:09:07.866Z,28.63
2022-12-18T04:11:39.064Z,26.38
2022-12-18T04:14:07.509Z,28.33
2022-12-18T04:16:34.959Z,29.20
2022-12-18T04:19:04.904Z,30.13
2022-12-18T04:21:37.941Z,33.25
2022-12-18T04:24:05.989Z,31.15
2022-12-18T04:26:34.497Z,24.38
2022-12-18T04:29:14.724Z,29.08
2022-12-18T04:31:41.572Z,30.08
2022-12-18T04:34:09.525Z,26.40
2022-12-18T04:36:42.198Z,30.02
2022-12-18T04:39:09.248Z,28.85
2022-12-18T04:41:35.943Z,31.85
2022-12-18T04:44:04.253Z,27.50
2022-12-18T04:46:30.963Z,29.90
2022-12-18T04:48:57.774Z,26.77
2022-12-18T04:51:26.621Z,26.52
2022-12-18T04:53:54.418Z,32.08
2022-12-18T04:56:21.556Z,27.10
2022-12-18T04:58:50.918Z,27.85
2022-12-18T05:01:19.437Z,30.25
2022-12-18T05:03:46.440Z,24.40
2022-12-18T05:06:13.417Z,28.33
2022-12-18T05:08:40.095Z,25.30
2022-12-18T05:11:11.132Z,24.05
2022-12-18T05:13:39.255Z,24.65
2022-12-18T05:16:06.911Z,27.42
2022-12-18T05:18:33.909Z,25.60
2022-12-18T05:21:00.909Z,30.23
2022-12-18T05:23:28.173Z,29.55
2022-12-18T05:26:03.980Z,23.30
2022-12-18T05:28:32.786Z,23.15
2022-12-18T05:31:02.020Z,25.25
2022-12-18T05:33:32.908Z,23.08
2022-12-18T05:36:01.917Z,28.30
2022-12-18T05:38:32.915Z,25.05
2022-12-18T05:41:03.125Z,25.77
2022-12-18T05:43:30.121Z,21.52
2022-12-18T05:45:57.886Z,24.58
2022-12-18T05:48:25.085Z,21.60
2022-12-18T05:50:52.077Z,17.80
2022-12-18T05:53:21.235Z,19.88
2022-12-18T05:55:48.336Z,21.70
2022-12-18T05:58:16.079Z,23.83
2022-12-18T06:00:45.685Z,19.95
2022-12-18T06:03:14.342Z,22.60
2022-12-18T06:05:46.428Z,24.50
2022-12-18T06:08:14.255Z,24.70
2022-12-18T06:10:42.165Z,18.77
2022-12-18T06:13:14.947Z,17.42
2022-12-18T06:15:41.687Z,20.02
2022-12-18T06:18:08.324Z,16.50
2022-12-18T06:20:37.589Z,19.23
2022-12-18T06:23:04.589Z,18.88
2022-12-18T06:25:33.051Z,21.25
2022-12-18T06:28:00.229Z,15.02
2022-12-18T06:30:27.147Z,16.92
2022-12-18T06:32:56.573Z,16.77
2022-12-18T06:35:23.983Z,23.08
2022-12-18T06:37:50.808Z,15.75
2022-12-18T06:40:17.743Z,16.55
2022-12-18T06:42:44.367Z,18.15
2022-12-18T06:45:12.401Z,24.83
2022-12-18T06:47:39.082Z,24.00
2022-12-18T06:50:06.562Z,26.40
2022-12-18T06:52:33.979Z,21.67
2022-12-18T06:55:00.893Z,28.48
2022-12-18T06:57:27.512Z,25.17
2022-12-18T06:59:54.201Z,21.95
2022-12-18T07:02:20.933Z,17.15
2022-12-18T07:04:47.686Z,16.90
2022-12-18T07:07:14.335Z,17.02
2022-12-18T07:09:41.055Z,18.25
2022-12-18T07:12:08.824Z,19.42
2022-12-18T07:14:35.626Z,18.75
2022-12-18T07:17:02.911Z,22.27
2022-12-18T07:19:30.459Z,17.75
2022-12-18T07:21:57.830Z,17.45
2022-12-18T07:24:24.554Z,20.25
2022-12-18T07:26:51.267Z,21.80
2022-12-18T07:29:18.010Z,26.90
2022-12-18T07:31:45.234Z,25.42
2022-12-18T07:34:13.592Z,24.52
2022-12-18T07:36:45.161Z,27.00
2022-12-18T07:39:12.815Z,21.75
2022-12-18T07:41:46.785Z,17.15
2022-12-18T07:44:16.252Z,17.13
2022-12-18T07:46:42.968Z,20.23
2022-12-18T07:49:09.641Z,17.92
2022-12-18T07:51:36.340Z,18.88
2022-12-18T07:54:03.032Z,16.45
2022-12-18T07:56:31.177Z,26.00
2022-12-18T07:58:59.872Z,27.85
2022-12-18T08:01:29.668Z,33.05
2022-12-18T08:03:56.543Z,32.72
2022-12-18T08:06:24.263Z,25.38
2022-12-18T08:08:55.639Z,19.13
2022-12-18T08:11:24.153Z,15.65
2022-12-18T08:13:51.254Z,27.00
2022-12-18T08:16:19.066Z,23.25
2022-12-18T08:18:46.764Z,29.05
2022-12-18T08:21:21.534Z,26.80
2022-12-18T08:23:48.787Z,30.15
2022-12-18T08:26:15.988Z,31.50
2022-12-18T08:28:43.006Z,34.03
2022-12-18T08:31:10.487Z,34.25
2022-12-18T08:33:39.038Z,35.40
2022-12-18T08:36:06.679Z,32.58
2022-12-18T08:38:34.196Z,26.45
2022-12-18T08:41:02.012Z,27.48
2022-12-18T08:44:04.315Z,25.88
2022-12-18T08:46:40.896Z,28.58
2022-12-18T08:49:08.963Z,30.88
2022-12-18T08:51:36.661Z,27.90
2022-12-18T08:54:04.597Z,32.55
2022-12-18T08:56:34.285Z,27.55
2022-12-18T08:59:01.355Z,29.85
2022-12-18T09:01:28.492Z,27.55
2022-12-18T09:03:55.364Z,25.88
2022-12-18T09:06:23.508Z,14.07
2022-12-18T09:08:50.349Z,16.98
2022-12-18T09:11:23.641Z,21.98
2022-12-18T09:13:50.710Z,25.08
2022-12-18T09:16:18.165Z,34.20
2022-12-18T09:18:44.964Z,26.73
2022-12-18T09:21:17.027Z,30.45
2022-12-18T09:23:44.051Z,24.67
2022-12-18T09:26:11.365Z,21.60
2022-12-18T09:28:38.561Z,21.42
2022-12-18T09:31:08.635Z,18.50
2022-12-18T09:33:38.996Z,15.27
2022-12-18T09:36:08.257Z,14.15
2022-12-18T09:38:35.893Z,13.55
2022-12-18T09:41:25.839Z,17.65
2022-12-18T09:44:00.668Z,16.05
2022-12-18T09:46:41.760Z,20.55
2022-12-18T09:49:15.700Z,14.15
2022-12-18T09:51:51.983Z,12.52
2022-12-18T09:54:27.203Z,15.25
2022-12-18T09:56:54.928Z,12.38
2022-12-18T09:59:26.601Z,12.52
2022-12-18T10:01:53.424Z,13.38
2022-12-18T10:04:20.373Z,13.32
2022-12-18T10:06:55.856Z,13.23
2022-12-18T10:09:38.101Z,10.20
2022-12-18T10:12:07.597Z,11.95
2022-12-18T10:14:53.334Z,13.35
2022-12-18T10:17:38.562Z,13.73
2022-12-18T10:20:23.444Z,13.43
2022-12-18T10:23:19.340Z,12.15
2022-12-18T10:25:56.132Z,12.90
2022-12-18T10:28:26.036Z,14.93
2022-12-18T10:30:53.003Z,10.10
2022-12-18T10:33:26.502Z,16.48
2022-12-18T10:35:54.046Z,17.20
2022-12-18T10:38:28.070Z,12.98
2022-12-18T10:41:07.260Z,14.80
2022-12-18T10:43:36.455Z,17.75
2022-12-18T10:46:09.392Z,18.30
2022-12-18T10:48:48.315Z,30.08
2022-12-18T10:51:27.131Z,21.27
2022-12-18T10:54:02.649Z,22.88
2022-12-18T10:56:32.214Z,18.13
2022-12-18T10:59:08.293Z,17.50
2022-12-18T11:01:55.017Z,21.02
2022-12-18T11:04:27.667Z,17.38
2022-12-18T11:07:06.444Z,20.60
2022-12-18T11:09:35.628Z,17.70
2022-12-18T11:12:24.681Z,14.75
2022-12-18T11:14:53.637Z,16.25
2022-12-18T11:17:26.082Z,15.45
2022-12-18T11:19:55.338Z,14.80
2022-12-18T11:22:27.355Z,14.73
2022-12-18T11:27:59.849Z,15.15
2022-12-18T11:30:36.159Z,17.30
2022-12-18T11:33:20.316Z,16.88
2022-12-18T11:36:03.752Z,16.30
2022-12-18T11:38:36.047Z,14.45
2022-12-18T11:41:49.962Z,15.13
2022-12-18T11:44:23.867Z,15.05
2022-12-18T11:47:00.823Z,16.33
2022-12-18T11:49:35.841Z,13.63
2022-12-18T11:52:32.054Z,14.73
2022-12-18T11:55:09.884Z,19.23
2022-12-18T11:58:02.002Z,15.43
2022-12-18T12:00:37.427Z,14.00
2022-12-18T12:03:28.727Z,15.40
2022-12-18T12:06:12.858Z,15.35
2022-12-18T12:09:03.779Z,13.40
2022-12-18T12:12:07.538Z,12.35
2022-12-18T12:14:46.333Z,16.50
2022-12-18T12:17:18.573Z,12.45
2022-12-18T12:20:16.899Z,14.63
2022-12-18T12:23:06.987Z,12.63
2022-12-18T12:25:55.261Z,11.70
2022-12-18T12:28:40.804Z,12.85
2022-12-18T12:31:33.946Z,16.17
2022-12-18T12:34:25.342Z,18.65
2022-12-18T12:37:10.331Z,20.88
2022-12-18T12:39:43.542Z,25.98
2022-12-18T12:42:53.868Z,31.02
2022-12-18T12:45:44.165Z,38.20
2022-12-18T12:48:19.989Z,41.60
2022-12-18T12:50:48.909Z,47.50
2022-12-18T12:53:25.629Z,55.00
2022-12-18T12:55:55.831Z,46.58
2022-12-18T12:58:44.416Z,56.13
2022-12-18T13:01:24.406Z,51.75
2022-12-18T13:04:13.885Z,44.90
2022-12-18T13:06:55.628Z,38.55
2022-12-18T13:09:22.471Z,28.70
2022-12-18T13:12:08.453Z,25.48
2022-12-18T13:14:37.557Z,20.85
2022-12-18T13:17:22.476Z,21.35
2022-12-18T13:20:12.737Z,17.33
2022-12-18T13:22:51.497Z,16.00
2022-12-18T13:25:39.323Z,13.70
2022-12-18T13:28:11.041Z,15.10
2022-12-18T13:30:57.425Z,20.95
2022-12-18T13:33:27.938Z,17.95
2022-12-18T13:36:16.672Z,21.33
2022-12-18T13:38:45.140Z,20.25
2022-12-18T13:41:25.699Z,22.55
2022-12-18T13:43:59.971Z,21.05
2022-12-18T13:46:47.090Z,24.45
2022-12-18T13:49:13.813Z,19.35
2022-12-18T13:51:50.770Z,22.88
2022-12-18T13:54:47.215Z,19.80
2022-12-18T13:57:39.684Z,21.05
2022-12-18T14:00:29.755Z,18.45
2022-12-18T14:02:58.586Z,24.77
2022-12-18T14:05:26.702Z,25.08
2022-12-18T14:07:54.745Z,20.25
2022-12-18T14:10:47.936Z,20.52
2022-12-18T14:13:16.173Z,18.83
2022-12-18T14:15:48.925Z,40.03
2022-12-18T14:18:15.545Z,35.05
2022-12-18T14:20:49.230Z,46.42
2022-12-18T14:23:44.215Z,24.10
2022-12-18T14:26:31.727Z,42.75
2022-12-18T14:29:02.274Z,40.42
2022-12-18T14:31:33.266Z,48.40
2022-12-18T14:34:02.916Z,64.38
2022-12-18T14:36:30.265Z,56.15
2022-12-18T14:38:59.583Z,61.88
2022-12-18T14:41:27.213Z,56.63
2022-12-18T14:43:55.836Z,47.13
2022-12-18T14:46:35.433Z,37.13
2022-12-18T14:49:25.362Z,29.23
2022-12-18T14:51:55.571Z,28.42
2022-12-18T14:54:24.258Z,17.48
2022-12-18T14:57:16.249Z,16.33
2022-12-18T14:59:43.168Z,16.08
2022-12-18T15:02:27.831Z,14.35
2022-12-18T15:05:19.947Z,17.33
2022-12-18T15:07:52.081Z,15.68
2022-12-18T15:10:27.254Z,36.95
2022-12-18T15:12:57.149Z,18.15
2022-12-18T15:15:39.041Z,16.00
2022-12-18T15:18:13.311Z,14.82
2022-12-18T15:20:56.709Z,17.50
2022-12-18T15:23:27.333Z,28.75
2022-12-18T15:26:09.590Z,16.98
2022-12-18T15:28:44.149Z,24.10
2022-12-18T15:31:12.336Z,23.10
2022-12-18T15:33:50.216Z,22.95
2022-12-18T15:36:20.855Z,18.35
2022-12-18T15:39:04.851Z,15.85
2022-12-18T15:41:36.012Z,22.08
2022-12-18T15:44:04.732Z,32.22
2022-12-18T15:46:32.083Z,66.22
2022-12-18T15:49:02.096Z,38.22
2022-12-18T15:51:39.498Z,41.75
2022-12-18T15:54:12.760Z,28.23
2022-12-18T15:56:58.285Z,23.08
2022-12-18T15:59:25.444Z,21.88
2022-12-18T16:01:54.139Z,25.55
2022-12-18T16:04:22.611Z,16.73
2022-12-18T16:09:37.562Z,25.13
2022-12-18T16:12:04.754Z,15.30
2022-12-18T16:14:33.076Z,22.48
2022-12-18T16:17:02.414Z,27.83
2022-12-18T16:19:30.398Z,25.45
2022-12-18T16:22:12.631Z,24.08
2022-12-18T16:24:43.769Z,27.35
2022-12-18T16:27:10.534Z,24.33
2022-12-18T16:29:37.179Z,22.33
2022-12-18T16:32:06.345Z,19.80
2022-12-18T16:34:41.366Z,16.27
2022-12-18T16:37:09.715Z,16.15
2022-12-18T16:39:37.875Z,8.82
2022-12-18T16:42:08.108Z,10.95
2022-12-18T16:44:35.305Z,14.90
2022-12-18T16:47:03.899Z,16.73
2022-12-18T16:49:30.965Z,14.63
2022-12-18T16:51:57.983Z,54.75
2022-12-18T16:54:25.400Z,19.38
2022-12-18T16:56:55.062Z,21.17
2022-12-18T16:59:22.333Z,16.00
2022-12-18T17:01:49.124Z,17.35
2022-12-18T17:04:17.221Z,23.52
2022-12-18T17:06:46.137Z,18.48
2022-12-18T17:09:17.583Z,14.50
2022-12-18T17:11:44.474Z,16.13
2022-12-18T17:14:15.184Z,14.55
2022-12-18T17:16:42.161Z,10.70
2022-12-18T17:19:15.324Z,7.22
2022-12-18T17:21:45.706Z,5.15
2022-12-18T17:24:12.384Z,6.47
2022-12-18T17:26:39.166Z,27.05
2022-12-18T17:29:06.199Z,26.20
2022-12-18T17:31:33.774Z,26.73
2022-12-18T17:34:03.041Z,21.67
2022-12-18T17:36:31.946Z,41.03
2022-12-18T17:39:00.840Z,22.42
2022-12-18T17:41:29.659Z,19.05
2022-12-18T17:44:00.570Z,13.50
2022-12-18T17:46:28.978Z,9.38
2022-12-18T17:48:55.744Z,12.50
2022-12-18T17:51:22.590Z,13.82
2022-12-18T17:53:49.483Z,13.07
2022-12-18T17:56:19.938Z,30.70
2022-12-18T17:58:48.119Z,41.78
2022-12-18T18:01:17.222Z,27.90
2022-12-18T18:03:45.134Z,30.38
2022-12-18T18:06:12.343Z,23.15
2022-12-18T18:08:39.090Z,19.13
2022-12-18T18:11:33.167Z,16.67
2022-12-18T18:14:00.743Z,16.55
2022-12-18T18:16:40.933Z,16.83
2022-12-18T18:19:20.026Z,11.65
2022-12-18T18:21:53.235Z,15.48
2022-12-18T18:24:42.758Z,13.00
2022-12-18T18:27:09.739Z,20.70
2022-12-18T18:29:36.582Z,49.33
2022-12-18T18:32:03.675Z,39.80
2022-12-18T18:34:32.326Z,18.65
2022-12-18T18:37:00.983Z,18.88
2022-12-18T18:39:28.245Z,24.10
2022-12-18T18:41:55.805Z,26.45
2022-12-18T18:44:33.912Z,22.25
2022-12-18T18:47:00.854Z,21.88
2022-12-18T18:49:28.667Z,19.13
2022-12-18T18:52:03.989Z,16.67
2022-12-18T18:54:31.422Z,14.88
2022-12-18T18:59:46.917Z,41.22
2022-12-18T19:02:18.044Z,41.03
2022-12-18T19:04:52.095Z,43.45
2022-12-18T19:07:29.641Z,45.22
2022-12-18T19:10:04.907Z,45.63
2022-12-18T19:12:51.590Z,47.08
2022-12-18T19:15:18.390Z,46.15
2022-12-18T19:17:47.065Z,45.45
2022-12-18T19:20:15.951Z,32.70
2022-12-18T19:22:42.725Z,34.92
2022-12-18T19:25:10.129Z,55.10
2022-12-18T19:27:38.921Z,31.67
2022-12-18T19:30:06.234Z,39.40
2022-12-18T19:32:34.258Z,33.38
2022-12-18T19:35:01.104Z,36.40
2022-12-18T19:37:28.646Z,23.70
2022-12-18T19:39:56.690Z,46.35
2022-12-18T19:42:30.641Z,37.78
2022-12-18T19:45:02.430Z,33.63
2022-12-18T19:47:30.167Z,38.50
2022-12-18T19:49:57.373Z,41.50
2022-12-18T19:52:24.225Z,36.13
2022-12-18T19:54:51.052Z,33.58
2022-12-18T19:57:17.745Z,28.25
2022-12-18T19:59:44.524Z,31.27
2022-12-18T20:02:13.785Z,14.60
2022-12-18T20:04:41.195Z,6.75
2022-12-18T20:07:08.449Z,38.90
2022-12-18T20:09:36.946Z,34.90
2022-12-18T20:12:04.830Z,12.25
2022-12-18T20:14:31.711Z,12.32
2022-12-18T20:17:08.509Z,29.67
2022-12-18T20:20:53.287Z,30.83
2022-12-18T20:31:06.426Z,6.60
2022-12-18T20:33:33.456Z,14.32
2022-12-18T20:36:08.804Z,16.20
2022-12-18T20:38:38.730Z,16.67
2022-12-18T20:41:11.818Z,14.40
2022-12-18T20:43:39.679Z,12.95
2022-12-18T20:46:09.779Z,12.07
2022-12-18T20:48:36.618Z,11.43
2022-12-18T20:51:07.610Z,14.30
2022-12-18T20:53:40.106Z,11.80
2022-12-18T20:56:17.821Z,11.80
2022-12-18T20:58:49.639Z,8.98
2022-12-18T21:01:19.224Z,10.45
2022-12-18T21:03:48.266Z,12.77
2022-12-18T21:06:17.645Z,10.10
2022-12-18T21:08:44.666Z,12.13
2022-12-18T21:11:39.228Z,11.07
2022-12-18T21:14:26.793Z,7.47
2022-12-18T21:16:54.180Z,8.13
2022-12-18T21:19:26.162Z,10.10
2022-12-18T21:21:54.361Z,8.25
2022-12-18T21:24:21.814Z,9.95
2022-12-18T21:26:50.857Z,10.48
2022-12-18T21:29:22.371Z,8.00
2022-12-18T21:31:49.664Z,8.85
2022-12-18T21:34:35.846Z,8.68
2022-12-18T21:37:02.833Z,9.93
2022-12-18T21:39:30.697Z,10.75
2022-12-18T21:42:17.026Z,7.55
2022-12-18T21:44:44.665Z,9.18
2022-12-18T21:47:22.326Z,7.90
2022-12-18T21:49:52.577Z,7.65
2022-12-18T21:52:21.571Z,5.30
2022-12-18T21:54:58.484Z,6.93
2022-12-18T21:57:27.486Z,10.73
2022-12-18T21:59:55.740Z,7.10
2022-12-18T22:02:23.055Z,9.18
2022-12-18T22:04:49.902Z,7.50
2022-12-18T22:07:17.086Z,8.57
2022-12-18T22:09:44.252Z,7.05
2022-12-18T22:12:12.981Z,9.13
2022-12-18T22:14:39.720Z,8.73
2022-12-18T22:17:06.529Z,10.30
2022-12-18T22:19:38.154Z,10.60
2022-12-18T22:22:09.509Z,11.13
2022-12-18T22:24:36.293Z,8.90
2022-12-18T22:27:03.336Z,6.85
2022-12-18T22:29:49.614Z,7.70
2022-12-18T22:32:20.402Z,4.85
2022-12-18T22:35:06.229Z,7.88
2022-12-18T22:37:36.988Z,5.38
2022-12-18T22:40:05.891Z,5.75
2022-12-18T22:42:32.869Z,4.57
2022-12-18T22:45:00.339Z,6.32
2022-12-18T22:47:30.114Z,6.82
2022-12-18T22:49:58.122Z,9.13
2022-12-18T22:52:25.274Z,10.35
2022-12-18T22:54:53.278Z,6.15
2022-12-18T22:57:21.795Z,6.63
2022-12-18T22:59:49.979Z,6.00
2022-12-18T23:02:19.279Z,7.60
2022-12-18T23:04:47.445Z,6.10
2022-12-18T23:07:14.585Z,7.75
2022-12-18T23:09:41.311Z,6.47
2022-12-18T23:12:14.261Z,4.82
2022-12-18T23:14:41.046Z,3.65
2022-12-18T23:17:07.671Z,5.28
2022-12-18T23:19:34.397Z,4.18
2022-12-18T23:22:03.507Z,4.78
2022-12-18T23:24:32.801Z,3.60
2022-12-18T23:26:59.517Z,4.30
2022-12-18T23:29:26.254Z,5.00
2022-12-18T23:31:53.114Z,4.68
2022-12-18T23:34:19.937Z,3.45
2022-12-18T23:36:47.490Z,4.78
2022-12-18T23:39:29.429Z,5.03
2022-12-18T23:42:00.638Z,4.82
2022-12-18T23:44:28.098Z,7.80
2022-12-18T23:46:55.338Z,3.90
2022-12-18T23:49:23.605Z,4.95
2022-12-18T23:51:50.678Z,3.70
2022-12-18T23:54:17.347Z,5.38
2022-12-18T23:56:49.018Z,1.77
2022-12-18T23:59:15.765Z,1.45
